LUF5510 ZMCK-UNNT
Flight info
| Callsign | LUF5510 |
|---|---|
| Flight time | 3h 12m |
| Altitude | 36000 |
| Route | LUBSO A575 DARNO/K0832F360 A575 KZL/K0835F380 A575 NOSPI R241 BEGIL |
| Aircraft | B738/M-SDE2E3FGHIRWXY/LB1 |
Departure
| Time | 2026-04-21 14:20 |
|---|---|
| Airport | Ulaanbaatar Chinggis Khaan International Airport (ZMCK) |
Arrival
| Time | 2026-04-21 17:32 |
|---|---|
| Airport | Novosibirsk Tolmachevo Airport (UNNT) |
| Time | Latitude | Longitude | Altitude | Speed | Heading |
|---|---|---|---|---|---|
| 2026-04-21 13:33 | 47.65037 | 106.82212 | 4513 ft | 0 kts | 355° |
| 2026-04-21 14:08 | 47.65029 | 106.82214 | 4509 ft | 2 kts | 336° |
| 2026-04-21 14:08 | 47.65015 | 106.82219 | 4509 ft | 2 kts | 1° |
| 2026-04-21 14:08 | 47.64999 | 106.82220 | 4507 ft | 2 kts | 353° |
| 2026-04-21 14:08 | 47.64984 | 106.82222 | 4506 ft | 2 kts | 356° |
| 2026-04-21 14:09 | 47.64969 | 106.82224 | 4504 ft | 2 kts | 355° |
| 2026-04-21 14:09 | 47.64954 | 106.82225 | 4503 ft | 2 kts | 355° |
| 2026-04-21 14:09 | 47.64939 | 106.82226 | 4502 ft | 2 kts | 0° |
| 2026-04-21 14:09 | 47.64928 | 106.82226 | 4501 ft | 0 kts | 358° |
| 2026-04-21 14:10 | 47.64917 | 106.82230 | 4501 ft | 2 kts | 316° |
| 2026-04-21 14:10 | 47.64911 | 106.82241 | 4501 ft | 0 kts | 285° |
| 2026-04-21 14:10 | 47.64910 | 106.82252 | 4501 ft | 0 kts | 283° |
| 2026-04-21 14:13 | 47.64910 | 106.82250 | 4501 ft | 0 kts | 283° |
| 2026-04-21 14:13 | 47.64915 | 106.82214 | 4501 ft | 6 kts | 282° |
| 2026-04-21 14:13 | 47.64932 | 106.82114 | 4499 ft | 13 kts | 285° |
| 2026-04-21 14:13 | 47.64960 | 106.81960 | 4497 ft | 16 kts | 286° |
| 2026-04-21 14:14 | 47.64989 | 106.81795 | 4495 ft | 16 kts | 285° |
| 2026-04-21 14:14 | 47.65011 | 106.81629 | 4494 ft | 16 kts | 259° |
| 2026-04-21 14:14 | 47.64965 | 106.81473 | 4489 ft | 17 kts | 266° |
| 2026-04-21 14:14 | 47.64987 | 106.81297 | 4487 ft | 17 kts | 284° |
| 2026-04-21 14:15 | 47.65019 | 106.81121 | 4487 ft | 17 kts | 284° |
| 2026-04-21 14:15 | 47.65049 | 106.80947 | 4488 ft | 16 kts | 285° |
| 2026-04-21 14:15 | 47.65078 | 106.80780 | 4489 ft | 17 kts | 284° |
| 2026-04-21 14:15 | 47.65108 | 106.80608 | 4494 ft | 16 kts | 286° |
| 2026-04-21 14:16 | 47.65138 | 106.80440 | 4496 ft | 17 kts | 284° |
| 2026-04-21 14:16 | 47.65170 | 106.80261 | 4499 ft | 18 kts | 284° |
| 2026-04-21 14:16 | 47.65202 | 106.80077 | 4501 ft | 19 kts | 285° |
| 2026-04-21 14:16 | 47.65237 | 106.79875 | 4500 ft | 20 kts | 281° |
| 2026-04-21 14:17 | 47.65212 | 106.79734 | 4496 ft | 12 kts | 212° |
| 2026-04-21 14:17 | 47.65191 | 106.79720 | 4494 ft | 0 kts | 198° |
| 2026-04-21 14:18 | 47.65190 | 106.79720 | 4494 ft | 1 kts | 198° |
| 2026-04-21 14:18 | 47.65145 | 106.79701 | 4491 ft | 11 kts | 193° |
| 2026-04-21 14:18 | 47.65083 | 106.79761 | 4489 ft | 11 kts | 104° |
| 2026-04-21 14:18 | 47.65064 | 106.79874 | 4489 ft | 11 kts | 105° |
| 2026-04-21 14:19 | 47.65031 | 106.80058 | 4488 ft | 37 kts | 104° |
| 2026-04-21 14:19 | 47.64911 | 106.80746 | 4478 ft | 99 kts | 105° |
| 2026-04-21 14:19 | 47.64690 | 106.82002 | 4479 ft | 151 kts | 105° |
| 2026-04-21 14:19 | 47.64396 | 106.83669 | 4743 ft | 171 kts | 105° |
| 2026-04-21 14:20 | 47.64098 | 106.85332 | 5404 ft | 168 kts | 106° |
| 2026-04-21 14:20 | 47.63784 | 106.87109 | 5700 ft | 189 kts | 105° |
| 2026-04-21 14:20 | 47.63447 | 106.89069 | 6144 ft | 200 kts | 105° |
| 2026-04-21 14:20 | 47.63092 | 106.91102 | 6459 ft | 212 kts | 105° |
| 2026-04-21 14:21 | 47.62705 | 106.93282 | 6741 ft | 227 kts | 105° |
| 2026-04-21 14:21 | 47.62274 | 106.95691 | 6951 ft | 247 kts | 105° |
| 2026-04-21 14:21 | 47.61765 | 106.98154 | 7332 ft | 258 kts | 114° |
| 2026-04-21 14:21 | 47.60687 | 107.00311 | 7769 ft | 265 kts | 140° |
| 2026-04-21 14:22 | 47.59092 | 107.01732 | 8244 ft | 272 kts | 159° |
| 2026-04-21 14:22 | 47.57213 | 107.02547 | 8539 ft | 285 kts | 175° |
| 2026-04-21 14:22 | 47.55209 | 107.02350 | 8992 ft | 288 kts | 201° |
| 2026-04-21 14:22 | 47.53433 | 107.00957 | 9611 ft | 284 kts | 222° |
| 2026-04-21 14:23 | 47.52021 | 106.98922 | 10198 ft | 282 kts | 237° |
| 2026-04-21 14:23 | 47.51129 | 106.96304 | 10461 ft | 287 kts | 261° |
| 2026-04-21 14:23 | 47.51064 | 106.93278 | 10812 ft | 295 kts | 281° |
| 2026-04-21 14:23 | 47.51517 | 106.90199 | 11166 ft | 308 kts | 285° |
| 2026-04-21 14:24 | 47.52054 | 106.86999 | 11596 ft | 319 kts | 285° |
| 2026-04-21 14:24 | 47.52596 | 106.83738 | 12219 ft | 323 kts | 285° |
| 2026-04-21 14:24 | 47.53142 | 106.80399 | 12928 ft | 325 kts | 285° |
| 2026-04-21 14:24 | 47.53678 | 106.77089 | 13695 ft | 325 kts | 285° |
| 2026-04-21 14:25 | 47.54222 | 106.73716 | 14391 ft | 327 kts | 285° |
| 2026-04-21 14:25 | 47.54760 | 106.70369 | 15106 ft | 329 kts | 285° |
| 2026-04-21 14:25 | 47.55284 | 106.67117 | 15788 ft | 329 kts | 286° |
| 2026-04-21 14:25 | 47.56159 | 106.63964 | 16399 ft | 332 kts | 303° |
| 2026-04-21 14:26 | 47.57806 | 106.61498 | 17000 ft | 339 kts | 322° |
| 2026-04-21 14:26 | 47.59963 | 106.59859 | 17636 ft | 345 kts | 332° |
| 2026-04-21 14:26 | 47.62181 | 106.58437 | 18205 ft | 349 kts | 332° |
| 2026-04-21 14:26 | 47.64475 | 106.56931 | 18784 ft | 351 kts | 332° |
| 2026-04-21 14:27 | 47.66737 | 106.55418 | 19321 ft | 355 kts | 332° |
| 2026-04-21 14:27 | 47.69014 | 106.53886 | 19880 ft | 358 kts | 332° |
| 2026-04-21 14:27 | 47.71307 | 106.52341 | 20422 ft | 360 kts | 332° |
| 2026-04-21 14:27 | 47.73592 | 106.50800 | 20956 ft | 362 kts | 332° |
| 2026-04-21 14:28 | 47.75894 | 106.49249 | 21431 ft | 365 kts | 332° |
| 2026-04-21 14:28 | 47.78236 | 106.47669 | 21898 ft | 368 kts | 332° |
| 2026-04-21 14:28 | 47.80565 | 106.46096 | 22418 ft | 370 kts | 331° |
| 2026-04-21 14:28 | 47.82874 | 106.44350 | 22845 ft | 371 kts | 326° |
| 2026-04-21 14:29 | 47.84998 | 106.42186 | 23297 ft | 370 kts | 318° |
| 2026-04-21 14:29 | 47.86866 | 106.39530 | 23755 ft | 370 kts | 310° |
| 2026-04-21 14:29 | 47.88558 | 106.36591 | 24232 ft | 372 kts | 307° |
| 2026-04-21 14:29 | 47.90160 | 106.33584 | 24691 ft | 374 kts | 306° |
| 2026-04-21 14:30 | 47.91771 | 106.30468 | 25215 ft | 376 kts | 306° |
| 2026-04-21 14:30 | 47.93356 | 106.27382 | 25699 ft | 378 kts | 306° |
| 2026-04-21 14:30 | 47.94951 | 106.24284 | 26156 ft | 380 kts | 306° |
| 2026-04-21 14:30 | 47.96578 | 106.21133 | 26597 ft | 382 kts | 306° |
| 2026-04-21 14:31 | 47.98209 | 106.17981 | 26945 ft | 387 kts | 306° |
| 2026-04-21 14:31 | 47.99868 | 106.14778 | 27317 ft | 390 kts | 306° |
| 2026-04-21 14:31 | 48.01527 | 106.11584 | 27836 ft | 390 kts | 307° |
| 2026-04-21 14:31 | 48.03172 | 106.08421 | 28322 ft | 390 kts | 307° |
| 2026-04-21 14:32 | 48.04847 | 106.05193 | 28729 ft | 391 kts | 307° |
| 2026-04-21 14:32 | 48.06510 | 106.01989 | 29047 ft | 395 kts | 307° |
| 2026-04-21 14:32 | 48.08190 | 105.98742 | 29369 ft | 398 kts | 307° |
| 2026-04-21 14:32 | 48.09901 | 105.95438 | 29710 ft | 400 kts | 307° |
| 2026-04-21 14:33 | 48.11583 | 105.92170 | 30059 ft | 402 kts | 307° |
| 2026-04-21 14:33 | 48.13240 | 105.88784 | 30419 ft | 404 kts | 304° |
| 2026-04-21 14:33 | 48.14750 | 105.85172 | 30675 ft | 408 kts | 300° |
| 2026-04-21 14:33 | 48.16067 | 105.81411 | 31108 ft | 409 kts | 297° |
| 2026-04-21 14:34 | 48.17272 | 105.77625 | 31563 ft | 408 kts | 296° |
| 2026-04-21 14:34 | 48.18450 | 105.73799 | 32195 ft | 403 kts | 296° |
| 2026-04-21 14:34 | 48.19598 | 105.70019 | 32991 ft | 394 kts | 296° |
| 2026-04-21 14:34 | 48.20730 | 105.66286 | 33557 ft | 390 kts | 296° |
| 2026-04-21 14:35 | 48.21853 | 105.62593 | 33921 ft | 390 kts | 296° |
| 2026-04-21 14:35 | 48.22966 | 105.58947 | 34265 ft | 390 kts | 297° |
| 2026-04-21 14:35 | 48.24111 | 105.55203 | 34636 ft | 389 kts | 297° |
| 2026-04-21 14:35 | 48.25240 | 105.51516 | 35046 ft | 387 kts | 297° |
| 2026-04-21 14:36 | 48.26360 | 105.47861 | 35357 ft | 386 kts | 297° |
| 2026-04-21 14:36 | 48.27465 | 105.44247 | 35639 ft | 385 kts | 297° |
| 2026-04-21 14:36 | 48.28593 | 105.40562 | 35853 ft | 386 kts | 297° |
| 2026-04-21 14:37 | 48.30832 | 105.33230 | 35937 ft | 388 kts | 296° |
| 2026-04-21 14:37 | 48.33064 | 105.25891 | 35935 ft | 386 kts | 296° |
| 2026-04-21 14:38 | 48.35291 | 105.18558 | 35933 ft | 387 kts | 297° |
| 2026-04-21 14:38 | 48.37523 | 105.11186 | 35934 ft | 387 kts | 296° |
| 2026-04-21 14:39 | 48.39734 | 105.03857 | 35934 ft | 386 kts | 297° |
| 2026-04-21 14:39 | 48.41935 | 104.96543 | 35932 ft | 386 kts | 296° |
| 2026-04-21 14:40 | 48.44151 | 104.89153 | 35932 ft | 387 kts | 296° |
| 2026-04-21 14:40 | 48.46369 | 104.81737 | 35935 ft | 388 kts | 297° |
| 2026-04-21 14:41 | 48.48574 | 104.74342 | 35933 ft | 387 kts | 296° |
| 2026-04-21 14:41 | 48.50762 | 104.66981 | 35933 ft | 386 kts | 296° |
| 2026-04-21 14:42 | 48.52948 | 104.59615 | 35939 ft | 387 kts | 296° |
| 2026-04-21 14:42 | 48.55127 | 104.52245 | 35941 ft | 386 kts | 296° |
| 2026-04-21 14:43 | 48.57319 | 104.44801 | 35939 ft | 387 kts | 296° |
| 2026-04-21 14:43 | 48.59482 | 104.37432 | 35943 ft | 386 kts | 296° |
| 2026-04-21 14:44 | 48.61658 | 104.29995 | 35944 ft | 384 kts | 295° |
| 2026-04-21 14:44 | 48.63813 | 104.22617 | 35942 ft | 386 kts | 296° |
| 2026-04-21 14:45 | 48.65977 | 104.15188 | 35944 ft | 386 kts | 295° |
| 2026-04-21 14:45 | 48.68132 | 104.07755 | 35944 ft | 385 kts | 295° |
| 2026-04-21 14:46 | 48.70280 | 104.00330 | 35952 ft | 386 kts | 295° |
| 2026-04-21 14:46 | 48.72411 | 103.92947 | 35953 ft | 384 kts | 295° |
| 2026-04-21 14:47 | 48.74540 | 103.85546 | 35959 ft | 385 kts | 295° |
| 2026-04-21 14:47 | 48.76672 | 103.78109 | 35965 ft | 385 kts | 295° |
| 2026-04-21 14:48 | 48.78795 | 103.70671 | 35970 ft | 386 kts | 295° |
| 2026-04-21 14:48 | 48.80917 | 103.63205 | 35973 ft | 386 kts | 295° |
| 2026-04-21 14:49 | 48.83040 | 103.55729 | 35976 ft | 385 kts | 295° |
| 2026-04-21 14:49 | 48.85147 | 103.48290 | 35979 ft | 385 kts | 295° |
| 2026-04-21 14:50 | 48.86896 | 103.42095 | 35975 ft | 384 kts | 295° |
| 2026-04-21 14:50 | 48.89293 | 103.33385 | 35978 ft | 385 kts | 293° |
| 2026-04-21 14:51 | 48.91217 | 103.25875 | 35981 ft | 384 kts | 292° |
| 2026-04-21 14:51 | 48.93143 | 103.18274 | 35983 ft | 384 kts | 292° |
| 2026-04-21 14:52 | 48.95068 | 103.10713 | 35984 ft | 383 kts | 293° |
| 2026-04-21 14:52 | 48.96991 | 103.03165 | 35975 ft | 384 kts | 292° |
| 2026-04-21 14:53 | 48.98911 | 102.95620 | 35973 ft | 385 kts | 292° |
| 2026-04-21 14:53 | 49.00838 | 102.88020 | 35967 ft | 383 kts | 292° |
| 2026-04-21 14:54 | 49.02748 | 102.80457 | 35969 ft | 384 kts | 292° |
| 2026-04-21 14:54 | 49.04647 | 102.72912 | 35971 ft | 384 kts | 292° |
| 2026-04-21 14:55 | 49.06557 | 102.65303 | 35968 ft | 385 kts | 292° |
| 2026-04-21 14:55 | 49.08459 | 102.57707 | 35970 ft | 384 kts | 292° |
| 2026-04-21 14:56 | 49.10358 | 102.50089 | 35970 ft | 385 kts | 292° |
| 2026-04-21 14:56 | 49.12248 | 102.42478 | 35969 ft | 384 kts | 292° |
| 2026-04-21 14:57 | 49.14119 | 102.34924 | 35970 ft | 383 kts | 291° |
| 2026-04-21 14:57 | 49.16003 | 102.27299 | 35969 ft | 384 kts | 291° |
| 2026-04-21 14:58 | 49.17888 | 102.19646 | 35970 ft | 384 kts | 291° |
| 2026-04-21 14:58 | 49.19764 | 102.11992 | 35970 ft | 384 kts | 291° |
| 2026-04-21 14:59 | 49.21620 | 102.04392 | 35971 ft | 384 kts | 291° |
| 2026-04-21 14:59 | 49.23497 | 101.96713 | 35968 ft | 385 kts | 291° |
| 2026-04-21 15:00 | 49.25361 | 101.89042 | 35970 ft | 385 kts | 292° |
| 2026-04-21 15:00 | 49.27210 | 101.81402 | 35971 ft | 386 kts | 291° |
| 2026-04-21 15:01 | 49.29057 | 101.73688 | 35971 ft | 385 kts | 291° |
| 2026-04-21 15:01 | 49.30899 | 101.66001 | 35975 ft | 385 kts | 291° |
| 2026-04-21 15:02 | 49.32745 | 101.58292 | 35976 ft | 387 kts | 291° |
| 2026-04-21 15:02 | 49.34577 | 101.50616 | 35982 ft | 384 kts | 291° |
| 2026-04-21 15:03 | 49.36398 | 101.42963 | 35997 ft | 386 kts | 291° |
| 2026-04-21 15:03 | 49.38227 | 101.35251 | 35996 ft | 384 kts | 291° |
| 2026-04-21 15:04 | 49.40042 | 101.27559 | 35997 ft | 386 kts | 290° |
| 2026-04-21 15:04 | 49.41867 | 101.19803 | 35997 ft | 385 kts | 291° |
| 2026-04-21 15:05 | 49.43668 | 101.12112 | 35997 ft | 386 kts | 290° |
| 2026-04-21 15:05 | 49.46362 | 101.00549 | 36001 ft | 386 kts | 291° |
| 2026-04-21 15:06 | 49.48164 | 100.92793 | 36005 ft | 385 kts | 290° |
| 2026-04-21 15:06 | 49.49962 | 100.85029 | 36006 ft | 385 kts | 290° |
| 2026-04-21 15:07 | 49.51750 | 100.77270 | 36003 ft | 385 kts | 291° |
| 2026-04-21 15:07 | 49.53525 | 100.69524 | 35991 ft | 386 kts | 290° |
| 2026-04-21 15:08 | 49.55308 | 100.61731 | 35991 ft | 385 kts | 291° |
| 2026-04-21 15:08 | 49.57070 | 100.54001 | 35993 ft | 385 kts | 291° |
| 2026-04-21 15:09 | 49.58832 | 100.46241 | 35996 ft | 385 kts | 291° |
| 2026-04-21 15:09 | 49.60594 | 100.38453 | 35997 ft | 385 kts | 291° |
| 2026-04-21 15:10 | 49.62357 | 100.30640 | 36000 ft | 386 kts | 290° |
| 2026-04-21 15:10 | 49.64115 | 100.22825 | 35996 ft | 387 kts | 290° |
| 2026-04-21 15:11 | 49.66174 | 100.15221 | 35996 ft | 386 kts | 297° |
| 2026-04-21 15:11 | 49.68820 | 100.08055 | 35992 ft | 385 kts | 301° |
| 2026-04-21 15:12 | 49.71604 | 100.00991 | 35988 ft | 384 kts | 301° |
| 2026-04-21 15:12 | 49.74365 | 99.93942 | 35998 ft | 385 kts | 301° |
| 2026-04-21 15:13 | 49.77116 | 99.86837 | 35995 ft | 384 kts | 300° |
| 2026-04-21 15:13 | 49.79836 | 99.79755 | 36004 ft | 386 kts | 300° |
| 2026-04-21 15:14 | 49.82572 | 99.72600 | 35998 ft | 385 kts | 300° |
| 2026-04-21 15:14 | 49.85275 | 99.65505 | 35991 ft | 385 kts | 300° |
| 2026-04-21 15:15 | 49.87987 | 99.58368 | 35986 ft | 384 kts | 300° |
| 2026-04-21 15:15 | 49.90700 | 99.51209 | 35981 ft | 384 kts | 300° |
| 2026-04-21 15:16 | 49.93385 | 99.44102 | 35979 ft | 384 kts | 300° |
| 2026-04-21 15:16 | 49.96087 | 99.36925 | 35979 ft | 386 kts | 300° |
| 2026-04-21 15:17 | 49.98777 | 99.29765 | 35979 ft | 385 kts | 299° |
| 2026-04-21 15:17 | 50.01486 | 99.22531 | 35978 ft | 386 kts | 299° |
| 2026-04-21 15:18 | 50.04170 | 99.15346 | 35978 ft | 386 kts | 300° |
| 2026-04-21 15:18 | 50.06860 | 99.08124 | 35975 ft | 386 kts | 300° |
| 2026-04-21 15:19 | 50.09541 | 99.00918 | 35976 ft | 387 kts | 300° |
| 2026-04-21 15:19 | 50.12234 | 98.93654 | 35979 ft | 388 kts | 300° |
| 2026-04-21 15:20 | 50.14906 | 98.86425 | 35985 ft | 386 kts | 299° |
| 2026-04-21 15:20 | 50.17581 | 98.79163 | 35995 ft | 387 kts | 300° |
| 2026-04-21 15:21 | 50.20259 | 98.71877 | 36020 ft | 386 kts | 299° |
| 2026-04-21 15:21 | 50.22911 | 98.64640 | 36012 ft | 387 kts | 299° |
| 2026-04-21 15:22 | 50.25580 | 98.57336 | 36002 ft | 386 kts | 299° |
| 2026-04-21 15:22 | 50.28227 | 98.50079 | 36003 ft | 388 kts | 299° |
| 2026-04-21 15:23 | 50.30872 | 98.42799 | 36007 ft | 385 kts | 299° |
| 2026-04-21 15:23 | 50.33529 | 98.35461 | 36002 ft | 387 kts | 299° |
| 2026-04-21 15:24 | 50.36158 | 98.28165 | 36002 ft | 386 kts | 298° |
| 2026-04-21 15:24 | 50.38637 | 98.20750 | 36008 ft | 385 kts | 296° |
| 2026-04-21 15:25 | 50.41037 | 98.13283 | 36012 ft | 386 kts | 296° |
| 2026-04-21 15:25 | 50.43459 | 98.05775 | 36019 ft | 385 kts | 296° |
| 2026-04-21 15:26 | 50.45872 | 97.98322 | 36014 ft | 383 kts | 296° |
| 2026-04-21 15:26 | 50.48288 | 97.90858 | 36022 ft | 383 kts | 296° |
| 2026-04-21 15:27 | 50.50706 | 97.83372 | 36026 ft | 383 kts | 296° |
| 2026-04-21 15:27 | 50.53103 | 97.75929 | 36044 ft | 383 kts | 296° |
| 2026-04-21 15:28 | 50.55508 | 97.68438 | 36052 ft | 384 kts | 297° |
| 2026-04-21 15:28 | 50.57894 | 97.60983 | 36053 ft | 385 kts | 296° |
| 2026-04-21 15:29 | 50.60308 | 97.53429 | 36047 ft | 384 kts | 297° |
| 2026-04-21 15:29 | 50.62687 | 97.45956 | 36039 ft | 383 kts | 297° |
| 2026-04-21 15:30 | 50.65073 | 97.38430 | 36055 ft | 385 kts | 296° |
| 2026-04-21 15:30 | 50.67450 | 97.30917 | 36065 ft | 384 kts | 296° |
| 2026-04-21 15:31 | 50.69826 | 97.23386 | 36065 ft | 385 kts | 296° |
| 2026-04-21 15:31 | 50.72203 | 97.15830 | 36070 ft | 384 kts | 296° |
| 2026-04-21 15:32 | 50.74562 | 97.08308 | 36068 ft | 384 kts | 296° |
| 2026-04-21 15:32 | 50.76916 | 97.00775 | 36071 ft | 384 kts | 296° |
| 2026-04-21 15:33 | 50.79289 | 96.93151 | 36063 ft | 385 kts | 296° |
| 2026-04-21 15:33 | 50.81634 | 96.85603 | 36061 ft | 384 kts | 296° |
| 2026-04-21 15:34 | 50.83987 | 96.78003 | 36046 ft | 385 kts | 296° |
| 2026-04-21 15:34 | 50.86317 | 96.70454 | 36043 ft | 384 kts | 296° |
| 2026-04-21 15:35 | 50.88653 | 96.62864 | 36053 ft | 384 kts | 296° |
| 2026-04-21 15:35 | 50.90992 | 96.55242 | 36054 ft | 383 kts | 296° |
| 2026-04-21 15:36 | 50.93320 | 96.47635 | 36057 ft | 384 kts | 296° |
| 2026-04-21 15:36 | 50.95636 | 96.40039 | 36060 ft | 383 kts | 296° |
| 2026-04-21 15:37 | 50.97946 | 96.32432 | 36059 ft | 385 kts | 295° |
| 2026-04-21 15:37 | 51.00258 | 96.24799 | 36064 ft | 384 kts | 295° |
| 2026-04-21 15:38 | 51.02560 | 96.17175 | 36064 ft | 384 kts | 295° |
| 2026-04-21 15:38 | 51.04864 | 96.09525 | 36065 ft | 384 kts | 295° |
| 2026-04-21 15:39 | 51.07155 | 96.01889 | 36063 ft | 384 kts | 296° |
| 2026-04-21 15:39 | 51.09452 | 95.94205 | 36066 ft | 384 kts | 296° |
| 2026-04-21 15:40 | 51.11740 | 95.86536 | 36061 ft | 383 kts | 296° |
| 2026-04-21 15:40 | 51.14001 | 95.78934 | 36060 ft | 383 kts | 295° |
| 2026-04-21 15:41 | 51.16267 | 95.71291 | 36053 ft | 383 kts | 296° |
| 2026-04-21 15:41 | 51.18536 | 95.63612 | 36058 ft | 383 kts | 296° |
| 2026-04-21 15:42 | 51.20792 | 95.55949 | 36053 ft | 382 kts | 296° |
| 2026-04-21 15:42 | 51.23031 | 95.48318 | 36057 ft | 382 kts | 296° |
| 2026-04-21 15:43 | 51.25267 | 95.40668 | 36052 ft | 382 kts | 296° |
| 2026-04-21 15:43 | 51.27494 | 95.33035 | 36051 ft | 382 kts | 295° |
| 2026-04-21 15:44 | 51.29725 | 95.25365 | 36041 ft | 382 kts | 295° |
| 2026-04-21 15:44 | 51.31951 | 95.17682 | 36043 ft | 382 kts | 295° |
| 2026-04-21 15:45 | 51.34172 | 95.09991 | 36042 ft | 382 kts | 295° |
| 2026-04-21 15:45 | 51.36392 | 95.02282 | 36038 ft | 382 kts | 295° |
| 2026-04-21 15:46 | 51.38584 | 94.94640 | 36044 ft | 381 kts | 295° |
| 2026-04-21 15:46 | 51.40794 | 94.86916 | 36048 ft | 382 kts | 295° |
| 2026-04-21 15:47 | 51.43000 | 94.79180 | 36048 ft | 383 kts | 295° |
| 2026-04-21 15:47 | 51.45187 | 94.71486 | 36053 ft | 382 kts | 295° |
| 2026-04-21 15:48 | 51.47382 | 94.63738 | 36054 ft | 382 kts | 295° |
| 2026-04-21 15:48 | 51.49551 | 94.56055 | 36053 ft | 380 kts | 295° |
| 2026-04-21 15:49 | 51.51725 | 94.48328 | 36053 ft | 382 kts | 295° |
| 2026-04-21 15:49 | 51.53900 | 94.40576 | 36052 ft | 381 kts | 295° |
| 2026-04-21 15:50 | 51.56062 | 94.32845 | 36056 ft | 380 kts | 295° |
| 2026-04-21 15:50 | 51.58215 | 94.25118 | 36055 ft | 380 kts | 295° |
| 2026-04-21 15:51 | 51.60502 | 94.17506 | 36048 ft | 380 kts | 298° |
| 2026-04-21 15:51 | 51.63073 | 94.10097 | 36044 ft | 380 kts | 300° |
| 2026-04-21 15:52 | 51.65682 | 94.02727 | 36041 ft | 380 kts | 300° |
| 2026-04-21 15:52 | 51.68279 | 93.95314 | 36030 ft | 379 kts | 300° |
| 2026-04-21 15:53 | 51.70847 | 93.87924 | 36033 ft | 379 kts | 300° |
| 2026-04-21 15:53 | 51.73392 | 93.80552 | 36032 ft | 380 kts | 300° |
| 2026-04-21 15:54 | 51.75961 | 93.73080 | 36029 ft | 378 kts | 300° |
| 2026-04-21 15:54 | 51.78487 | 93.65706 | 36033 ft | 379 kts | 300° |
| 2026-04-21 15:55 | 51.81030 | 93.58263 | 36037 ft | 378 kts | 300° |
| 2026-04-21 15:55 | 51.83567 | 93.50817 | 36046 ft | 377 kts | 300° |
| 2026-04-21 15:56 | 51.86081 | 93.43409 | 36045 ft | 376 kts | 300° |
| 2026-04-21 15:56 | 51.88597 | 93.35987 | 36039 ft | 376 kts | 300° |
| 2026-04-21 15:57 | 51.91092 | 93.28603 | 36036 ft | 374 kts | 299° |
| 2026-04-21 15:57 | 51.93579 | 93.21207 | 36037 ft | 375 kts | 299° |
| 2026-04-21 15:58 | 51.96052 | 93.13835 | 36039 ft | 374 kts | 299° |
| 2026-04-21 15:58 | 51.98523 | 93.06450 | 36040 ft | 375 kts | 300° |
| 2026-04-21 15:59 | 52.00989 | 92.99056 | 36043 ft | 372 kts | 300° |
| 2026-04-21 15:59 | 52.03454 | 92.91650 | 36046 ft | 373 kts | 300° |
| 2026-04-21 16:00 | 52.05911 | 92.84249 | 36043 ft | 374 kts | 299° |
| 2026-04-21 16:00 | 52.08360 | 92.76846 | 36031 ft | 373 kts | 299° |
| 2026-04-21 16:01 | 52.10804 | 92.69424 | 36032 ft | 373 kts | 299° |
| 2026-04-21 16:01 | 52.13249 | 92.61991 | 36035 ft | 374 kts | 299° |
| 2026-04-21 16:02 | 52.15696 | 92.54525 | 36040 ft | 373 kts | 299° |
| 2026-04-21 16:02 | 52.18117 | 92.47110 | 36038 ft | 372 kts | 299° |
| 2026-04-21 16:03 | 52.20563 | 92.39602 | 36040 ft | 375 kts | 300° |
| 2026-04-21 16:03 | 52.22989 | 92.32130 | 36032 ft | 373 kts | 299° |
| 2026-04-21 16:04 | 52.25420 | 92.24625 | 36037 ft | 375 kts | 299° |
| 2026-04-21 16:04 | 52.27839 | 92.17133 | 36027 ft | 375 kts | 298° |
| 2026-04-21 16:05 | 52.30265 | 92.09596 | 36014 ft | 374 kts | 299° |
| 2026-04-21 16:05 | 52.32662 | 92.02122 | 36010 ft | 375 kts | 298° |
| 2026-04-21 16:06 | 52.35084 | 91.94544 | 36005 ft | 373 kts | 298° |
| 2026-04-21 16:06 | 52.37467 | 91.87070 | 36015 ft | 373 kts | 299° |
| 2026-04-21 16:07 | 52.39868 | 91.79519 | 36014 ft | 371 kts | 298° |
| 2026-04-21 16:07 | 52.42242 | 91.72032 | 36030 ft | 373 kts | 298° |
| 2026-04-21 16:08 | 52.45803 | 91.60752 | 36045 ft | 372 kts | 298° |
| 2026-04-21 16:09 | 52.48169 | 91.53234 | 36047 ft | 372 kts | 298° |
| 2026-04-21 16:09 | 52.50538 | 91.45676 | 36047 ft | 372 kts | 298° |
| 2026-04-21 16:10 | 52.52896 | 91.38123 | 36055 ft | 373 kts | 298° |
| 2026-04-21 16:10 | 52.55258 | 91.30543 | 36040 ft | 373 kts | 297° |
| 2026-04-21 16:11 | 52.57601 | 91.22999 | 36045 ft | 372 kts | 298° |
| 2026-04-21 16:11 | 52.59949 | 91.15414 | 36045 ft | 372 kts | 298° |
| 2026-04-21 16:12 | 52.61892 | 91.09122 | 36052 ft | 371 kts | 298° |
| 2026-04-21 16:12 | 52.64616 | 91.00273 | 36046 ft | 372 kts | 298° |
| 2026-04-21 16:13 | 52.66936 | 90.92706 | 36051 ft | 370 kts | 297° |
| 2026-04-21 16:13 | 52.69257 | 90.85115 | 36049 ft | 371 kts | 298° |
| 2026-04-21 16:14 | 52.71572 | 90.77522 | 36045 ft | 370 kts | 298° |
| 2026-04-21 16:14 | 52.73887 | 90.69904 | 36044 ft | 371 kts | 297° |
| 2026-04-21 16:15 | 52.76178 | 90.62346 | 36042 ft | 370 kts | 297° |
| 2026-04-21 16:15 | 52.78481 | 90.54716 | 36040 ft | 370 kts | 298° |
| 2026-04-21 16:16 | 52.80767 | 90.47121 | 36045 ft | 372 kts | 297° |
| 2026-04-21 16:16 | 52.83043 | 90.39536 | 36037 ft | 369 kts | 297° |
| 2026-04-21 16:17 | 52.85311 | 90.31955 | 36019 ft | 368 kts | 297° |
| 2026-04-21 16:17 | 52.87577 | 90.24351 | 36027 ft | 369 kts | 297° |
| 2026-04-21 16:18 | 52.89845 | 90.16716 | 36021 ft | 369 kts | 296° |
| 2026-04-21 16:18 | 52.92095 | 90.09122 | 36009 ft | 369 kts | 297° |
| 2026-04-21 16:19 | 52.94346 | 90.01497 | 36008 ft | 368 kts | 296° |
| 2026-04-21 16:19 | 52.96586 | 89.93886 | 36008 ft | 369 kts | 297° |
| 2026-04-21 16:20 | 52.98838 | 89.86217 | 36010 ft | 369 kts | 297° |
| 2026-04-21 16:20 | 53.01060 | 89.78617 | 36013 ft | 369 kts | 297° |
| 2026-04-21 16:21 | 53.03296 | 89.70946 | 36019 ft | 368 kts | 296° |
| 2026-04-21 16:21 | 53.05506 | 89.63335 | 36012 ft | 368 kts | 296° |
| 2026-04-21 16:22 | 53.07727 | 89.55675 | 36025 ft | 368 kts | 296° |
| 2026-04-21 16:22 | 53.09943 | 89.47997 | 36009 ft | 369 kts | 296° |
| 2026-04-21 16:23 | 53.12170 | 89.40260 | 35995 ft | 370 kts | 296° |
| 2026-04-21 16:23 | 53.14380 | 89.32557 | 35995 ft | 370 kts | 296° |
| 2026-04-21 16:24 | 53.16591 | 89.24823 | 35996 ft | 370 kts | 296° |
| 2026-04-21 16:24 | 53.18801 | 89.17064 | 35991 ft | 370 kts | 296° |
| 2026-04-21 16:25 | 53.21003 | 89.09311 | 35998 ft | 371 kts | 296° |
| 2026-04-21 16:25 | 53.23202 | 89.01543 | 35997 ft | 372 kts | 296° |
| 2026-04-21 16:26 | 53.25388 | 88.93797 | 36002 ft | 371 kts | 296° |
| 2026-04-21 16:26 | 53.27590 | 88.85986 | 36007 ft | 371 kts | 296° |
| 2026-04-21 16:27 | 53.29775 | 88.78215 | 36005 ft | 371 kts | 296° |
| 2026-04-21 16:27 | 53.31982 | 88.70342 | 36010 ft | 371 kts | 296° |
| 2026-04-21 16:28 | 53.34146 | 88.62592 | 36006 ft | 371 kts | 296° |
| 2026-04-21 16:28 | 53.36322 | 88.54771 | 36010 ft | 369 kts | 296° |
| 2026-04-21 16:29 | 53.38122 | 88.48289 | 36009 ft | 369 kts | 296° |
| 2026-04-21 16:29 | 53.40631 | 88.39210 | 36008 ft | 369 kts | 296° |
| 2026-04-21 16:30 | 53.42780 | 88.31406 | 36006 ft | 369 kts | 295° |
| 2026-04-21 16:30 | 53.44911 | 88.23650 | 36004 ft | 369 kts | 295° |
| 2026-04-21 16:31 | 53.47053 | 88.15820 | 36009 ft | 368 kts | 295° |
| 2026-04-21 16:31 | 53.49187 | 88.08000 | 36001 ft | 368 kts | 295° |
| 2026-04-21 16:32 | 53.51305 | 88.00201 | 35995 ft | 368 kts | 295° |
| 2026-04-21 16:32 | 53.53421 | 87.92384 | 36000 ft | 368 kts | 295° |
| 2026-04-21 16:33 | 53.55532 | 87.84569 | 36003 ft | 368 kts | 295° |
| 2026-04-21 16:33 | 53.57617 | 87.76816 | 36000 ft | 367 kts | 295° |
| 2026-04-21 16:34 | 53.59723 | 87.68961 | 36003 ft | 367 kts | 295° |
| 2026-04-21 16:34 | 53.61811 | 87.61146 | 36001 ft | 368 kts | 295° |
| 2026-04-21 16:35 | 53.63915 | 87.53245 | 35998 ft | 368 kts | 295° |
| 2026-04-21 16:35 | 53.65995 | 87.45409 | 36002 ft | 368 kts | 295° |
| 2026-04-21 16:36 | 53.68084 | 87.37506 | 36006 ft | 368 kts | 295° |
| 2026-04-21 16:36 | 53.70155 | 87.29644 | 36006 ft | 367 kts | 294° |
| 2026-04-21 16:37 | 53.72217 | 87.21792 | 36008 ft | 367 kts | 294° |
| 2026-04-21 16:37 | 53.74283 | 87.13899 | 36010 ft | 367 kts | 294° |
| 2026-04-21 16:38 | 53.76342 | 87.06005 | 36010 ft | 366 kts | 294° |
| 2026-04-21 16:38 | 53.78381 | 86.98164 | 36008 ft | 367 kts | 294° |
| 2026-04-21 16:39 | 53.80426 | 86.90270 | 36009 ft | 366 kts | 294° |
| 2026-04-21 16:39 | 53.82538 | 86.82449 | 36007 ft | 367 kts | 296° |
| 2026-04-21 16:40 | 53.84811 | 86.74730 | 36006 ft | 366 kts | 296° |
| 2026-04-21 16:40 | 53.87085 | 86.67017 | 35999 ft | 367 kts | 296° |
| 2026-04-21 16:41 | 53.88958 | 86.60591 | 35997 ft | 366 kts | 296° |
| 2026-04-21 16:41 | 53.91571 | 86.51546 | 35992 ft | 367 kts | 296° |
| 2026-04-21 16:42 | 53.93798 | 86.43792 | 35984 ft | 367 kts | 296° |
| 2026-04-21 16:42 | 53.96042 | 86.35957 | 35978 ft | 367 kts | 296° |
| 2026-04-21 16:43 | 53.98265 | 86.28161 | 35974 ft | 368 kts | 295° |
| 2026-04-21 16:43 | 54.00478 | 86.20375 | 35972 ft | 366 kts | 295° |
| 2026-04-21 16:44 | 54.02687 | 86.12580 | 35973 ft | 367 kts | 295° |
| 2026-04-21 16:44 | 54.04884 | 86.04812 | 35984 ft | 366 kts | 295° |
| 2026-04-21 16:45 | 54.07091 | 85.96983 | 35991 ft | 366 kts | 295° |
| 2026-04-21 16:45 | 54.09280 | 85.89188 | 35993 ft | 367 kts | 295° |
| 2026-04-21 16:46 | 54.11485 | 85.81315 | 35995 ft | 366 kts | 295° |
| 2026-04-21 16:46 | 54.13665 | 85.73501 | 35992 ft | 366 kts | 295° |
| 2026-04-21 16:47 | 54.15837 | 85.65686 | 35999 ft | 366 kts | 295° |
| 2026-04-21 16:47 | 54.18013 | 85.57838 | 35997 ft | 368 kts | 295° |
| 2026-04-21 16:48 | 54.20199 | 85.49927 | 35995 ft | 368 kts | 295° |
| 2026-04-21 16:48 | 54.22372 | 85.42030 | 35994 ft | 368 kts | 295° |
| 2026-04-21 16:49 | 54.24463 | 85.34028 | 35991 ft | 369 kts | 291° |
| 2026-04-21 16:49 | 54.26225 | 85.25842 | 35988 ft | 369 kts | 289° |
| 2026-04-21 16:50 | 54.27952 | 85.17592 | 35992 ft | 369 kts | 290° |
| 2026-04-21 16:50 | 54.29711 | 85.09330 | 35985 ft | 369 kts | 290° |
| 2026-04-21 16:51 | 54.31482 | 85.01072 | 35987 ft | 368 kts | 290° |
| 2026-04-21 16:51 | 54.33246 | 84.92833 | 35985 ft | 368 kts | 290° |
| 2026-04-21 16:52 | 54.34997 | 84.84636 | 35985 ft | 368 kts | 290° |
| 2026-04-21 16:52 | 54.36456 | 84.77794 | 35908 ft | 368 kts | 290° |
| 2026-04-21 16:52 | 54.37607 | 84.72376 | 35403 ft | 364 kts | 289° |
| 2026-04-21 16:53 | 54.38467 | 84.68317 | 34789 ft | 364 kts | 289° |
| 2026-04-21 16:53 | 54.39332 | 84.64224 | 34050 ft | 365 kts | 290° |
| 2026-04-21 16:53 | 54.40192 | 84.60148 | 33332 ft | 366 kts | 290° |
| 2026-04-21 16:53 | 54.41055 | 84.56051 | 32680 ft | 364 kts | 290° |
| 2026-04-21 16:54 | 54.41909 | 84.51992 | 32183 ft | 359 kts | 290° |
| 2026-04-21 16:54 | 54.42749 | 84.47990 | 31663 ft | 356 kts | 290° |
| 2026-04-21 16:54 | 54.43580 | 84.44017 | 31142 ft | 361 kts | 290° |
| 2026-04-21 16:54 | 54.44428 | 84.39958 | 30610 ft | 363 kts | 290° |
| 2026-04-21 16:55 | 54.45273 | 84.35903 | 30061 ft | 359 kts | 290° |
| 2026-04-21 16:55 | 54.46115 | 84.31857 | 29510 ft | 356 kts | 289° |
| 2026-04-21 16:55 | 54.46949 | 84.27841 | 28974 ft | 353 kts | 289° |
| 2026-04-21 16:55 | 54.47759 | 84.23933 | 28444 ft | 350 kts | 289° |
| 2026-04-21 16:56 | 54.48568 | 84.20018 | 27924 ft | 347 kts | 289° |
| 2026-04-21 16:56 | 54.49393 | 84.16107 | 27394 ft | 344 kts | 290° |
| 2026-04-21 16:56 | 54.50332 | 84.12372 | 26875 ft | 341 kts | 295° |
| 2026-04-21 16:56 | 54.51462 | 84.08806 | 26360 ft | 339 kts | 298° |
| 2026-04-21 16:57 | 54.52669 | 84.05357 | 25840 ft | 336 kts | 300° |
| 2026-04-21 16:57 | 54.53900 | 84.01953 | 25331 ft | 334 kts | 300° |
| 2026-04-21 16:57 | 54.55115 | 83.98598 | 24836 ft | 338 kts | 300° |
| 2026-04-21 16:57 | 54.56368 | 83.95106 | 24316 ft | 340 kts | 300° |
| 2026-04-21 16:58 | 54.57588 | 83.91681 | 23815 ft | 338 kts | 300° |
| 2026-04-21 16:58 | 54.58809 | 83.88234 | 23298 ft | 336 kts | 300° |
| 2026-04-21 16:58 | 54.60026 | 83.84782 | 22784 ft | 334 kts | 300° |
| 2026-04-21 16:58 | 54.61219 | 83.81385 | 22270 ft | 332 kts | 300° |
| 2026-04-21 16:59 | 54.62407 | 83.77997 | 21767 ft | 330 kts | 300° |
| 2026-04-21 16:59 | 54.63574 | 83.74663 | 21261 ft | 328 kts | 300° |
| 2026-04-21 16:59 | 54.64740 | 83.71325 | 20760 ft | 326 kts | 300° |
| 2026-04-21 16:59 | 54.65915 | 83.67957 | 20253 ft | 324 kts | 300° |
| 2026-04-21 17:00 | 54.67068 | 83.64648 | 19757 ft | 322 kts | 300° |
| 2026-04-21 17:00 | 54.68215 | 83.61353 | 19255 ft | 320 kts | 300° |
| 2026-04-21 17:00 | 54.68964 | 83.59197 | 18939 ft | 319 kts | 300° |
| 2026-04-21 17:00 | 54.70473 | 83.54851 | 18300 ft | 316 kts | 300° |
| 2026-04-21 17:01 | 54.71608 | 83.51574 | 17797 ft | 315 kts | 300° |
| 2026-04-21 17:01 | 54.72721 | 83.48357 | 17315 ft | 313 kts | 300° |
| 2026-04-21 17:01 | 54.73836 | 83.45131 | 16828 ft | 311 kts | 300° |
| 2026-04-21 17:01 | 54.74939 | 83.41933 | 16348 ft | 309 kts | 300° |
| 2026-04-21 17:02 | 54.76031 | 83.38766 | 15888 ft | 308 kts | 299° |
| 2026-04-21 17:02 | 54.77122 | 83.35602 | 15388 ft | 306 kts | 299° |
| 2026-04-21 17:02 | 54.78196 | 83.32478 | 14933 ft | 304 kts | 298° |
| 2026-04-21 17:02 | 54.79277 | 83.29326 | 14436 ft | 303 kts | 298° |
| 2026-04-21 17:03 | 54.80336 | 83.26237 | 13984 ft | 301 kts | 298° |
| 2026-04-21 17:03 | 54.81398 | 83.23134 | 13536 ft | 299 kts | 298° |
| 2026-04-21 17:03 | 54.82455 | 83.20042 | 13057 ft | 298 kts | 298° |
| 2026-04-21 17:03 | 54.83501 | 83.16983 | 12601 ft | 296 kts | 298° |
| 2026-04-21 17:04 | 54.84546 | 83.13921 | 12142 ft | 294 kts | 298° |
| 2026-04-21 17:04 | 54.85578 | 83.10894 | 11677 ft | 292 kts | 298° |
| 2026-04-21 17:04 | 54.86522 | 83.07800 | 11223 ft | 289 kts | 291° |
| 2026-04-21 17:04 | 54.87097 | 83.04494 | 10785 ft | 286 kts | 281° |
| 2026-04-21 17:05 | 54.87443 | 83.01141 | 10456 ft | 281 kts | 278° |
| 2026-04-21 17:05 | 54.87736 | 82.97842 | 10286 ft | 270 kts | 278° |
| 2026-04-21 17:05 | 54.88028 | 82.94743 | 10199 ft | 258 kts | 279° |
| 2026-04-21 17:05 | 54.88334 | 82.91747 | 10010 ft | 249 kts | 279° |
| 2026-04-21 17:06 | 54.88646 | 82.88808 | 9684 ft | 247 kts | 279° |
| 2026-04-21 17:06 | 54.88956 | 82.85903 | 9365 ft | 245 kts | 280° |
| 2026-04-21 17:06 | 54.89270 | 82.82982 | 9048 ft | 242 kts | 280° |
| 2026-04-21 17:06 | 54.89577 | 82.80116 | 8738 ft | 240 kts | 280° |
| 2026-04-21 17:07 | 54.89777 | 82.78246 | 8539 ft | 239 kts | 280° |
| 2026-04-21 17:07 | 54.90180 | 82.74465 | 8127 ft | 244 kts | 280° |
| 2026-04-21 17:07 | 54.90490 | 82.71536 | 7797 ft | 246 kts | 280° |
| 2026-04-21 17:07 | 54.90805 | 82.68620 | 7476 ft | 244 kts | 282° |
| 2026-04-21 17:08 | 54.91341 | 82.65853 | 7161 ft | 243 kts | 298° |
| 2026-04-21 17:08 | 54.92422 | 82.63645 | 6844 ft | 244 kts | 312° |
| 2026-04-21 17:08 | 54.93337 | 82.61188 | 6337 ft | 245 kts | 284° |
| 2026-04-21 17:08 | 54.93247 | 82.58295 | 5916 ft | 245 kts | 248° |
| 2026-04-21 17:09 | 54.91058 | 82.53830 | 5355 ft | 245 kts | 231° |
| 2026-04-21 17:09 | 54.90020 | 82.51447 | 5064 ft | 251 kts | 239° |
| 2026-04-21 17:09 | 54.89206 | 82.48762 | 4745 ft | 250 kts | 249° |
| 2026-04-21 17:10 | 54.88697 | 82.45902 | 4419 ft | 248 kts | 259° |
| 2026-04-21 17:10 | 54.88462 | 82.42947 | 4187 ft | 242 kts | 266° |
| 2026-04-21 17:10 | 54.88456 | 82.40123 | 4100 ft | 227 kts | 276° |
| 2026-04-21 17:10 | 54.88734 | 82.37544 | 4044 ft | 211 kts | 289° |
| 2026-04-21 17:11 | 54.89338 | 82.35300 | 3982 ft | 202 kts | 305° |
| 2026-04-21 17:11 | 54.90279 | 82.33482 | 3954 ft | 204 kts | 322° |
| 2026-04-21 17:11 | 54.91495 | 82.32244 | 3960 ft | 204 kts | 338° |
| 2026-04-21 17:11 | 54.92874 | 82.31580 | 3775 ft | 205 kts | 352° |
| 2026-04-21 17:12 | 54.94273 | 82.31246 | 3537 ft | 203 kts | 354° |
| 2026-04-21 17:12 | 54.95679 | 82.31068 | 3312 ft | 200 kts | 5° |
| 2026-04-21 17:12 | 54.96973 | 82.31705 | 3162 ft | 188 kts | 33° |
| 2026-04-21 17:12 | 54.97909 | 82.33172 | 3032 ft | 177 kts | 52° |
| 2026-04-21 17:13 | 54.98497 | 82.34927 | 2916 ft | 161 kts | 71° |
| 2026-04-21 17:13 | 54.98667 | 82.36806 | 2797 ft | 154 kts | 84° |
| 2026-04-21 17:13 | 54.98791 | 82.38627 | 2682 ft | 152 kts | 80° |
| 2026-04-21 17:13 | 54.98963 | 82.40440 | 2537 ft | 151 kts | 79° |
| 2026-04-21 17:14 | 54.99133 | 82.42222 | 2394 ft | 148 kts | 79° |
| 2026-04-21 17:14 | 54.99293 | 82.43985 | 2257 ft | 147 kts | 79° |
| 2026-04-21 17:14 | 54.99458 | 82.45739 | 2126 ft | 146 kts | 79° |
| 2026-04-21 17:14 | 54.99619 | 82.47481 | 2000 ft | 144 kts | 79° |
| 2026-04-21 17:15 | 54.99778 | 82.49200 | 1955 ft | 144 kts | 79° |
| 2026-04-21 17:15 | 54.99939 | 82.50904 | 1786 ft | 139 kts | 79° |
| 2026-04-21 17:15 | 55.00086 | 82.52496 | 1543 ft | 130 kts | 79° |
| 2026-04-21 17:15 | 55.00229 | 82.54079 | 1339 ft | 135 kts | 79° |
| 2026-04-21 17:16 | 55.00386 | 82.55673 | 1183 ft | 137 kts | 77° |
| 2026-04-21 17:16 | 55.00546 | 82.57291 | 979 ft | 141 kts | 79° |
| 2026-04-21 17:16 | 55.00678 | 82.58990 | 808 ft | 142 kts | 80° |
| 2026-04-21 17:16 | 55.00840 | 82.60704 | 624 ft | 144 kts | 77° |
| 2026-04-21 17:17 | 55.01013 | 82.62456 | 426 ft | 148 kts | 79° |
| 2026-04-21 17:17 | 55.01152 | 82.64187 | 380 ft | 135 kts | 74° |
| 2026-04-21 17:17 | 55.01351 | 82.65649 | 590 ft | 125 kts | 76° |
| 2026-04-21 17:17 | 55.01474 | 82.67060 | 1212 ft | 123 kts | 81° |
| 2026-04-21 17:18 | 55.01589 | 82.68590 | 1625 ft | 136 kts | 80° |
| 2026-04-21 17:18 | 55.01743 | 82.70314 | 2014 ft | 153 kts | 81° |
| 2026-04-21 17:18 | 55.01916 | 82.72350 | 1995 ft | 187 kts | 81° |
| 2026-04-21 17:18 | 55.02116 | 82.74679 | 1977 ft | 200 kts | 81° |
| 2026-04-21 17:19 | 55.02223 | 82.77125 | 1971 ft | 206 kts | 92° |
| 2026-04-21 17:19 | 55.01783 | 82.79642 | 2378 ft | 229 kts | 118° |
| 2026-04-21 17:19 | 55.00717 | 82.81647 | 3317 ft | 231 kts | 143° |
| 2026-04-21 17:19 | 54.99258 | 82.82812 | 3864 ft | 235 kts | 166° |
| 2026-04-21 17:20 | 54.97632 | 82.83256 | 3980 ft | 237 kts | 173° |
| 2026-04-21 17:20 | 54.96017 | 82.83576 | 3967 ft | 232 kts | 172° |
| 2026-04-21 17:20 | 54.94402 | 82.83942 | 3963 ft | 233 kts | 171° |
| 2026-04-21 17:20 | 54.92809 | 82.84354 | 3960 ft | 232 kts | 170° |
| 2026-04-21 17:21 | 54.91220 | 82.84710 | 3963 ft | 232 kts | 177° |
| 2026-04-21 17:21 | 54.89632 | 82.84293 | 3962 ft | 233 kts | 205° |
| 2026-04-21 17:21 | 54.88388 | 82.82515 | 3965 ft | 233 kts | 235° |
| 2026-04-21 17:21 | 54.87678 | 82.80028 | 3965 ft | 233 kts | 253° |
| 2026-04-21 17:22 | 54.87425 | 82.78205 | 3965 ft | 233 kts | 260° |
| 2026-04-21 17:22 | 54.87114 | 82.74483 | 3966 ft | 233 kts | 263° |
| 2026-04-21 17:22 | 54.86924 | 82.71725 | 3963 ft | 233 kts | 267° |
| 2026-04-21 17:22 | 54.87051 | 82.68934 | 3959 ft | 234 kts | 283° |
| 2026-04-21 17:23 | 54.87501 | 82.66183 | 3962 ft | 233 kts | 288° |
| 2026-04-21 17:23 | 54.87973 | 82.63540 | 3963 ft | 232 kts | 287° |
| 2026-04-21 17:23 | 54.88429 | 82.60835 | 3967 ft | 233 kts | 287° |
| 2026-04-21 17:23 | 54.88862 | 82.58130 | 3964 ft | 233 kts | 286° |
| 2026-04-21 17:24 | 54.89287 | 82.55409 | 3963 ft | 233 kts | 286° |
| 2026-04-21 17:24 | 54.89713 | 82.52672 | 3966 ft | 233 kts | 285° |
| 2026-04-21 17:24 | 54.89976 | 82.49934 | 3969 ft | 232 kts | 271° |
| 2026-04-21 17:24 | 54.89775 | 82.47121 | 3967 ft | 234 kts | 259° |
| 2026-04-21 17:25 | 54.89426 | 82.44360 | 3963 ft | 235 kts | 258° |
| 2026-04-21 17:25 | 54.89091 | 82.41571 | 3920 ft | 232 kts | 259° |
| 2026-04-21 17:25 | 54.88836 | 82.38824 | 3679 ft | 229 kts | 266° |
| 2026-04-21 17:25 | 54.89048 | 82.36153 | 3409 ft | 223 kts | 295° |
| 2026-04-21 17:26 | 54.89914 | 82.34030 | 3149 ft | 216 kts | 318° |
| 2026-04-21 17:26 | 54.91086 | 82.32478 | 2889 ft | 209 kts | 333° |
| 2026-04-21 17:26 | 54.92426 | 82.31697 | 2645 ft | 198 kts | 354° |
| 2026-04-21 17:26 | 54.93745 | 82.31400 | 2516 ft | 185 kts | 357° |
| 2026-04-21 17:27 | 54.95009 | 82.31097 | 2514 ft | 182 kts | 356° |
| 2026-04-21 17:27 | 54.96244 | 82.30931 | 2506 ft | 175 kts | 9° |
| 2026-04-21 17:27 | 54.97334 | 82.31657 | 2532 ft | 165 kts | 40° |
| 2026-04-21 17:27 | 54.98102 | 82.33048 | 2522 ft | 155 kts | 56° |
| 2026-04-21 17:28 | 54.98534 | 82.34752 | 2524 ft | 154 kts | 79° |
| 2026-04-21 17:28 | 54.98634 | 82.36600 | 2526 ft | 154 kts | 84° |
| 2026-04-21 17:28 | 54.98776 | 82.38444 | 2526 ft | 154 kts | 80° |
| 2026-04-21 17:28 | 54.98950 | 82.40271 | 2461 ft | 150 kts | 80° |
| 2026-04-21 17:29 | 54.99113 | 82.42040 | 2351 ft | 145 kts | 80° |
| 2026-04-21 17:29 | 54.99273 | 82.43749 | 2237 ft | 143 kts | 79° |
| 2026-04-21 17:29 | 54.99431 | 82.45454 | 2126 ft | 141 kts | 79° |
| 2026-04-21 17:29 | 54.99588 | 82.47124 | 2014 ft | 140 kts | 79° |
| 2026-04-21 17:30 | 54.99742 | 82.48785 | 1970 ft | 137 kts | 79° |
| 2026-04-21 17:30 | 54.99889 | 82.50364 | 1881 ft | 130 kts | 79° |
| 2026-04-21 17:30 | 55.00033 | 82.51920 | 1630 ft | 129 kts | 79° |
| 2026-04-21 17:30 | 55.00177 | 82.53465 | 1458 ft | 130 kts | 79° |
| 2026-04-21 17:31 | 55.00320 | 82.55024 | 1270 ft | 131 kts | 79° |
| 2026-04-21 17:31 | 55.00472 | 82.56611 | 1026 ft | 135 kts | 79° |
| 2026-04-21 17:31 | 55.00626 | 82.58216 | 856 ft | 133 kts | 79° |
| 2026-04-21 17:31 | 55.00752 | 82.59807 | 715 ft | 131 kts | 80° |
| 2026-04-21 17:32 | 55.00846 | 82.60864 | 576 ft | 132 kts | 77° |
| 2026-04-21 17:32 | 55.01058 | 82.62951 | 387 ft | 130 kts | 78° |
| 2026-04-21 17:32 | 55.01180 | 82.64323 | 374 ft | 87 kts | 80° |
| 2026-04-21 17:32 | 55.01244 | 82.65041 | 374 ft | 35 kts | 80° |
| 2026-04-21 17:33 | 55.01275 | 82.65396 | 374 ft | 25 kts | 81° |
| 2026-04-21 17:33 | 55.01311 | 82.65778 | 374 ft | 42 kts | 81° |
| 2026-04-21 17:33 | 55.01355 | 82.66277 | 374 ft | 35 kts | 81° |
| 2026-04-21 17:33 | 55.01367 | 82.66552 | 374 ft | 11 kts | 118° |
| 2026-04-21 17:34 | 55.01302 | 82.66608 | 374 ft | 10 kts | 171° |
| 2026-04-21 17:34 | 55.01261 | 82.66620 | 374 ft | 0 kts | 172° |
| 2026-04-21 17:35 | 55.01237 | 82.66626 | 374 ft | 4 kts | 172° |
| 2026-04-21 17:36 | 55.01207 | 82.66634 | 374 ft | 4 kts | 172° |
| 2026-04-21 17:36 | 55.01170 | 82.66643 | 374 ft | 7 kts | 172° |
| 2026-04-21 17:36 | 55.01119 | 82.66656 | 374 ft | 7 kts | 167° |
| 2026-04-21 17:36 | 55.01096 | 82.66727 | 374 ft | 8 kts | 86° |
| 2026-04-21 17:37 | 55.01098 | 82.66766 | 374 ft | 3 kts | 86° |
| 2026-04-21 17:37 | 55.01092 | 82.66854 | 374 ft | 9 kts | 112° |
| 2026-04-21 17:37 | 55.01077 | 82.66936 | 374 ft | 11 kts | 88° |
| 2026-04-21 17:37 | 55.01066 | 82.67036 | 374 ft | 1 kts | 113° |
| 2026-04-21 17:38 | 55.01078 | 82.67068 | 374 ft | 5 kts | 52° |
| 2026-04-21 17:38 | 55.01067 | 82.67130 | 374 ft | 7 kts | 174° |
| 2026-04-21 17:38 | 55.01030 | 82.67144 | 374 ft | 0 kts | 169° |
| 2026-04-21 17:38 | 55.01028 | 82.67144 | 374 ft | 1 kts | 170° |
| 2026-04-21 17:39 | 55.01025 | 82.67145 | 374 ft | 0 kts | 171° |